createdAt,value
2018-05-06T00:00:52.928Z,7.92
2018-05-06T00:01:52.960Z,7.92
2018-05-06T00:02:53.056Z,7.93
2018-05-06T00:03:53.087Z,7.93
2018-05-06T00:04:52.920Z,7.9
2018-05-06T00:05:53.373Z,7.93
2018-05-06T00:06:52.990Z,7.92
2018-05-06T00:07:53.048Z,7.93
2018-05-06T00:08:52.930Z,7.93
2018-05-06T00:09:52.955Z,7.91
2018-05-06T00:10:52.959Z,7.93
2018-05-06T00:11:52.910Z,7.94
2018-05-06T00:12:52.922Z,7.92
2018-05-06T00:13:52.907Z,7.9
2018-05-06T00:14:52.989Z,7.88
2018-05-06T00:15:52.951Z,7.87
2018-05-06T00:16:52.922Z,7.9
2018-05-06T00:17:52.985Z,7.89
2018-05-06T00:18:52.926Z,7.91
2018-05-06T00:19:52.938Z,7.89
2018-05-06T00:20:52.900Z,7.9
2018-05-06T00:21:52.906Z,7.9
2018-05-06T00:22:52.877Z,7.91
2018-05-06T00:23:52.916Z,7.88
2018-05-06T00:24:52.923Z,7.89
2018-05-06T00:25:52.956Z,7.88
2018-05-06T00:26:52.924Z,7.87
2018-05-06T00:27:52.918Z,7.85
2018-05-06T00:28:52.933Z,7.86
2018-05-06T00:29:52.905Z,7.88
2018-05-06T00:30:52.902Z,7.86
2018-05-06T00:31:52.914Z,7.85
2018-05-06T00:32:57.837Z,7.85
2018-05-06T00:33:52.904Z,7.83
2018-05-06T00:34:52.926Z,7.83
2018-05-06T00:35:52.895Z,7.85
2018-05-06T00:36:52.924Z,7.88
2018-05-06T00:37:52.913Z,7.84
2018-05-06T00:38:52.930Z,7.88
2018-05-06T00:39:52.935Z,7.86
2018-05-06T00:40:52.953Z,7.86
2018-05-06T00:41:52.891Z,7.87
2018-05-06T00:42:52.898Z,7.86
2018-05-06T00:43:52.885Z,7.84
2018-05-06T00:44:53.003Z,7.83
2018-05-06T00:45:52.917Z,7.8
2018-05-06T00:46:52.881Z,7.8
2018-05-06T00:47:53.044Z,7.82
2018-05-06T00:48:53.621Z,7.81
2018-05-06T00:49:53.790Z,7.79
2018-05-06T00:50:53.666Z,7.77
2018-05-06T00:51:53.642Z,7.78
2018-05-06T00:52:53.665Z,7.79
2018-05-06T00:53:53.725Z,7.8
2018-05-06T00:54:53.782Z,7.8
2018-05-06T00:55:53.659Z,7.78
2018-05-06T00:56:53.572Z,7.8
2018-05-06T00:57:53.435Z,7.81
2018-05-06T00:58:53.615Z,7.8
2018-05-06T00:59:53.606Z,7.81
2018-05-06T01:00:53.604Z,7.81
2018-05-06T01:01:53.678Z,7.79
2018-05-06T01:02:53.632Z,7.79
2018-05-06T01:03:53.701Z,7.76
2018-05-06T01:04:53.725Z,7.74
2018-05-06T01:05:53.706Z,7.8
2018-05-06T01:06:53.633Z,7.81
2018-05-06T01:07:53.726Z,7.79
2018-05-06T01:08:53.703Z,7.75
2018-05-06T01:09:53.724Z,7.73
2018-05-06T01:10:53.637Z,7.75
2018-05-06T01:11:53.603Z,7.76
2018-05-06T01:12:53.652Z,7.71
2018-05-06T01:13:53.905Z,7.74
2018-05-06T01:14:53.665Z,7.72
2018-05-06T01:15:53.674Z,7.74
2018-05-06T01:16:53.689Z,7.71
2018-05-06T01:17:53.689Z,7.7
2018-05-06T01:18:53.808Z,7.69
2018-05-06T01:19:53.645Z,7.7
2018-05-06T01:20:53.932Z,7.69
2018-05-06T01:21:53.606Z,7.72
2018-05-06T01:22:53.601Z,7.73
2018-05-06T01:23:53.660Z,7.7
2018-05-06T01:24:53.725Z,7.73
2018-05-06T01:25:53.610Z,7.66
2018-05-06T01:26:53.642Z,7.67
2018-05-06T01:27:53.661Z,7.68
2018-05-06T01:28:53.593Z,7.69
2018-05-06T01:29:53.657Z,7.67
2018-05-06T01:30:53.656Z,7.69
2018-05-06T01:31:53.648Z,7.69
2018-05-06T01:32:53.460Z,7.73
2018-05-06T01:33:53.695Z,7.73
2018-05-06T01:34:53.701Z,7.67
2018-05-06T01:35:53.606Z,7.68
2018-05-06T01:36:53.617Z,7.66
2018-05-06T01:37:53.683Z,7.67
2018-05-06T01:38:53.599Z,7.68
2018-05-06T01:39:53.626Z,7.68
2018-05-06T01:40:53.674Z,7.62
2018-05-06T01:41:53.603Z,7.65
2018-05-06T01:42:53.629Z,7.63
2018-05-06T01:43:53.592Z,7.63
2018-05-06T01:44:53.668Z,7.61
2018-05-06T01:45:53.580Z,7.62
2018-05-06T01:46:53.575Z,7.62
2018-05-06T01:47:53.591Z,7.62
2018-05-06T01:48:52.926Z,7.6
2018-05-06T01:49:52.945Z,7.61
2018-05-06T01:50:54.502Z,7.6
2018-05-06T01:51:53.685Z,7.6
2018-05-06T01:52:52.911Z,7.6
2018-05-06T01:53:52.881Z,7.62
2018-05-06T01:54:53.631Z,7.59
2018-05-06T01:55:52.919Z,7.58
2018-05-06T01:56:52.888Z,7.61
2018-05-06T01:57:52.981Z,7.61
2018-05-06T01:58:52.873Z,7.58
2018-05-06T01:59:52.864Z,7.58
2018-05-06T02:00:54.957Z,7.61
2018-05-06T02:01:52.944Z,7.6
2018-05-06T02:02:52.908Z,7.59
2018-05-06T02:03:52.986Z,7.56
2018-05-06T02:04:53.673Z,7.55
2018-05-06T02:05:52.904Z,7.56
2018-05-06T02:06:52.873Z,7.56
2018-05-06T02:07:52.901Z,7.53
2018-05-06T02:08:52.918Z,7.53
2018-05-06T02:09:52.904Z,7.55
2018-05-06T02:10:52.912Z,7.57
2018-05-06T02:11:52.910Z,7.58
2018-05-06T02:12:52.933Z,7.55
2018-05-06T02:13:52.910Z,7.55
2018-05-06T02:14:53.648Z,7.53
2018-05-06T02:15:52.940Z,7.53
2018-05-06T02:16:52.886Z,7.55
2018-05-06T02:17:52.887Z,7.54
2018-05-06T02:18:52.908Z,7.53
2018-05-06T02:19:53.681Z,7.51
2018-05-06T02:20:52.928Z,7.5
2018-05-06T02:21:52.934Z,7.48
2018-05-06T02:22:52.915Z,7.49
2018-05-06T02:23:53.016Z,7.49
2018-05-06T02:24:52.907Z,7.49
2018-05-06T02:25:53.005Z,7.47
2018-05-06T02:26:52.908Z,7.49
2018-05-06T02:27:53.717Z,7.46
2018-05-06T02:28:52.912Z,7.46
2018-05-06T02:29:52.894Z,7.47
2018-05-06T02:30:52.928Z,7.47
2018-05-06T02:31:53.691Z,7.45
2018-05-06T02:32:52.902Z,7.4
2018-05-06T02:33:52.920Z,7.41
2018-05-06T02:34:53.702Z,7.44
2018-05-06T02:35:52.906Z,7.39
2018-05-06T02:36:52.899Z,7.4
2018-05-06T02:37:52.944Z,7.41
2018-05-06T02:38:52.884Z,7.42
2018-05-06T02:39:52.930Z,7.41
2018-05-06T02:40:52.907Z,7.43
2018-05-06T02:41:52.918Z,7.4
2018-05-06T02:42:52.896Z,7.4
2018-05-06T02:43:52.924Z,7.38
2018-05-06T02:44:52.921Z,7.38
2018-05-06T02:45:52.903Z,7.38
2018-05-06T02:46:52.941Z,7.4
2018-05-06T02:47:52.942Z,7.38
2018-05-06T02:48:52.933Z,7.39
2018-05-06T02:49:54.001Z,7.39
2018-05-06T02:50:52.894Z,7.41
2018-05-06T02:51:52.909Z,7.41
2018-05-06T02:52:52.899Z,7.41
2018-05-06T02:53:52.905Z,7.42
2018-05-06T02:54:52.999Z,7.38
2018-05-06T02:55:52.894Z,7.36
2018-05-06T02:56:52.935Z,7.35
2018-05-06T02:57:52.926Z,7.34
2018-05-06T02:58:52.928Z,7.33
2018-05-06T02:59:53.017Z,7.32
2018-05-06T03:00:52.922Z,7.36
2018-05-06T03:01:52.954Z,7.3
2018-05-06T03:02:52.919Z,7.28
2018-05-06T03:03:53.024Z,7.34
2018-05-06T03:04:53.103Z,7.33
2018-05-06T03:05:52.940Z,7.33
2018-05-06T03:06:52.944Z,7.3
2018-05-06T03:07:52.931Z,7.31
2018-05-06T03:08:52.938Z,7.3
2018-05-06T03:09:52.937Z,7.3
2018-05-06T03:10:52.950Z,7.29
2018-05-06T03:11:53.022Z,7.29
2018-05-06T03:12:52.963Z,7.27
2018-05-06T03:13:53.045Z,7.25
2018-05-06T03:14:53.004Z,7.26
2018-05-06T03:15:52.938Z,7.28
2018-05-06T03:16:52.952Z,7.33
2018-05-06T03:17:52.994Z,7.3
2018-05-06T03:18:53.041Z,7.34
2018-05-06T03:19:52.972Z,7.27
2018-05-06T03:20:52.984Z,7.33
2018-05-06T03:21:52.946Z,7.34
2018-05-06T03:22:52.924Z,7.32
2018-05-06T03:23:52.930Z,7.3
2018-05-06T03:24:53.012Z,7.26
2018-05-06T03:25:53.026Z,7.3
2018-05-06T03:26:53.020Z,7.32
2018-05-06T03:27:52.966Z,7.29
2018-05-06T03:28:53.034Z,7.29
2018-05-06T03:29:52.961Z,7.27
2018-05-06T03:30:52.975Z,7.28
2018-05-06T03:31:52.984Z,7.26
2018-05-06T03:32:52.959Z,7.23
2018-05-06T03:33:53.004Z,7.25
2018-05-06T03:34:52.977Z,7.25
2018-05-06T03:35:52.951Z,7.24
2018-05-06T03:36:52.951Z,7.21
2018-05-06T03:37:53.004Z,7.15
2018-05-06T03:38:52.934Z,7.13
2018-05-06T03:39:53.008Z,7.14
2018-05-06T03:40:53.051Z,7.11
2018-05-06T03:41:52.942Z,7.09
2018-05-06T03:42:52.959Z,7.1
2018-05-06T03:43:52.965Z,7.1
2018-05-06T03:44:52.992Z,7.07
2018-05-06T03:45:52.959Z,7.08
2018-05-06T03:46:52.967Z,7.08
2018-05-06T03:47:52.983Z,7.08
2018-05-06T03:48:52.939Z,7
2018-05-06T03:49:53.009Z,7.02
2018-05-06T03:50:52.985Z,7.04
2018-05-06T03:51:52.950Z,6.96
2018-05-06T03:52:53.033Z,6.89
2018-05-06T03:53:52.972Z,6.9
2018-05-06T03:54:52.969Z,6.92
2018-05-06T03:55:52.975Z,6.96
2018-05-06T03:56:53.003Z,6.95
2018-05-06T03:57:52.976Z,6.95
2018-05-06T03:58:52.935Z,6.9
2018-05-06T03:59:52.964Z,6.89
2018-05-06T04:00:53.055Z,6.89
2018-05-06T04:01:52.979Z,6.91
2018-05-06T04:02:52.947Z,6.85
2018-05-06T04:03:53.002Z,6.9
2018-05-06T04:04:52.964Z,6.86
2018-05-06T04:05:54.277Z,6.9
2018-05-06T04:06:52.992Z,6.89
2018-05-06T04:07:53.020Z,6.89
2018-05-06T04:08:52.972Z,6.89
2018-05-06T04:09:52.947Z,6.89
2018-05-06T04:10:53.230Z,6.86
2018-05-06T04:11:53.387Z,6.81
2018-05-06T04:12:52.962Z,6.85
2018-05-06T04:13:53.015Z,6.85
2018-05-06T04:14:52.969Z,6.77
2018-05-06T04:15:53.054Z,6.77
2018-05-06T04:16:52.930Z,6.77
2018-05-06T04:17:53.001Z,6.79
2018-05-06T04:18:53.002Z,6.75
2018-05-06T04:19:52.939Z,6.71
2018-05-06T04:20:52.991Z,6.72
2018-05-06T04:21:52.923Z,6.71
2018-05-06T04:22:53.023Z,6.71
2018-05-06T04:23:53.011Z,6.69
2018-05-06T04:24:53.006Z,6.7
2018-05-06T04:25:53.001Z,6.7
2018-05-06T04:26:53.436Z,6.64
2018-05-06T04:27:53.027Z,6.66
2018-05-06T04:28:52.948Z,6.64
2018-05-06T04:29:52.996Z,6.65
2018-05-06T04:30:53.025Z,6.66
2018-05-06T04:31:52.948Z,6.6
2018-05-06T04:32:53.164Z,6.6
2018-05-06T04:33:53.036Z,6.59
2018-05-06T04:34:52.999Z,6.61
2018-05-06T04:35:52.994Z,6.51
2018-05-06T04:36:53.021Z,6.52
2018-05-06T04:37:53.034Z,6.54
2018-05-06T04:38:52.954Z,6.56
2018-05-06T04:39:53.020Z,6.54
2018-05-06T04:40:53.015Z,6.58
2018-05-06T04:41:52.985Z,6.6
2018-05-06T04:42:52.974Z,6.58
2018-05-06T04:43:53.007Z,6.58
2018-05-06T04:44:53.074Z,6.59
2018-05-06T04:45:53.030Z,6.59
2018-05-06T04:46:52.995Z,6.56
2018-05-06T04:47:52.989Z,6.57
2018-05-06T04:48:52.975Z,6.52
2018-05-06T04:49:53.031Z,6.52
2018-05-06T04:50:53.193Z,6.55
2018-05-06T04:51:52.983Z,6.56
2018-05-06T04:52:52.993Z,6.57
2018-05-06T04:53:52.968Z,6.58
2018-05-06T04:54:52.963Z,6.61
2018-05-06T04:55:52.997Z,6.64
2018-05-06T04:56:52.970Z,6.65
2018-05-06T04:57:52.980Z,6.64
2018-05-06T04:58:52.953Z,6.61
2018-05-06T04:59:52.985Z,6.61
2018-05-06T05:00:52.998Z,6.6
2018-05-06T05:01:52.969Z,6.52
2018-05-06T05:02:52.965Z,6.5
2018-05-06T05:03:52.983Z,6.5
2018-05-06T05:04:52.956Z,6.48
2018-05-06T05:05:53.009Z,6.53
2018-05-06T05:06:52.981Z,6.54
2018-05-06T05:07:52.998Z,6.51
2018-05-06T05:08:52.973Z,6.51
2018-05-06T05:09:53.023Z,6.57
2018-05-06T05:10:52.993Z,6.57
2018-05-06T05:11:53.028Z,6.54
2018-05-06T05:12:53.001Z,6.48
2018-05-06T05:13:53.009Z,6.4
2018-05-06T05:14:52.985Z,6.44
2018-05-06T05:15:53.023Z,6.55
2018-05-06T05:16:53.113Z,6.57
2018-05-06T05:17:53.158Z,6.57
2018-05-06T05:18:53.014Z,6.56
2018-05-06T05:19:52.991Z,6.51
2018-05-06T05:20:53.450Z,6.45
2018-05-06T05:21:53.047Z,6.56
2018-05-06T05:22:52.979Z,6.87
2018-05-06T05:23:53.015Z,6.86
2018-05-06T05:24:53.128Z,6.91
2018-05-06T05:25:53.052Z,6.93
2018-05-06T05:26:53.095Z,6.97
2018-05-06T05:27:53.028Z,6.86
2018-05-06T05:28:53.013Z,6.88
2018-05-06T05:29:52.996Z,6.88
2018-05-06T05:30:53.054Z,6.93
2018-05-06T05:31:53.014Z,7.01
2018-05-06T05:32:53.153Z,7
2018-05-06T05:33:53.064Z,6.92
2018-05-06T05:34:53.020Z,6.88
2018-05-06T05:35:52.983Z,6.88
2018-05-06T05:36:53.000Z,6.93
2018-05-06T05:37:53.010Z,6.87
2018-05-06T05:38:53.036Z,7.02
2018-05-06T05:39:53.063Z,7.07
2018-05-06T05:40:52.988Z,6.94
2018-05-06T05:41:53.037Z,6.81
2018-05-06T05:42:53.194Z,6.8
2018-05-06T05:43:52.979Z,6.84
2018-05-06T05:44:52.967Z,6.84
2018-05-06T05:45:53.025Z,6.87
2018-05-06T05:46:53.198Z,6.84
2018-05-06T05:47:53.476Z,6.85
2018-05-06T05:48:53.044Z,6.78
2018-05-06T05:49:53.024Z,6.74
2018-05-06T05:50:52.977Z,6.79
2018-05-06T05:51:53.022Z,6.81
2018-05-06T05:52:53.013Z,6.78
2018-05-06T05:53:53.023Z,6.79
2018-05-06T05:54:52.998Z,6.8
2018-05-06T05:55:53.029Z,6.74
2018-05-06T05:56:53.010Z,6.77
2018-05-06T05:57:53.049Z,6.79
2018-05-06T05:58:53.084Z,6.65
2018-05-06T05:59:53.018Z,6.43
2018-05-06T06:00:53.001Z,6.46
2018-05-06T06:01:53.004Z,6.49
2018-05-06T06:02:53.008Z,6.43
2018-05-06T06:03:52.981Z,6.3
2018-05-06T06:04:53.031Z,6.46
2018-05-06T06:05:53.011Z,6.45
2018-05-06T06:06:53.059Z,6.37
2018-05-06T06:07:53.013Z,6.45
2018-05-06T06:08:53.031Z,6.44
2018-05-06T06:09:53.032Z,6.39
2018-05-06T06:10:53.008Z,6.32
2018-05-06T06:11:53.047Z,6.34
2018-05-06T06:12:52.985Z,6.33
2018-05-06T06:13:53.016Z,6.28
2018-05-06T06:14:53.003Z,6.26
2018-05-06T06:15:53.120Z,6.34
2018-05-06T06:16:53.018Z,6.42
2018-05-06T06:17:53.019Z,6.42
2018-05-06T06:18:53.065Z,6.42
2018-05-06T06:19:53.038Z,6.34
2018-05-06T06:20:53.049Z,6.35
2018-05-06T06:21:53.052Z,6.26
2018-05-06T06:22:53.012Z,6.31
2018-05-06T06:23:53.078Z,6.31
2018-05-06T06:24:53.181Z,6.25
2018-05-06T06:25:53.042Z,6.28
2018-05-06T06:26:53.052Z,6.35
2018-05-06T06:27:53.057Z,6.35
2018-05-06T06:28:53.158Z,6.55
2018-05-06T06:29:53.018Z,6.47
2018-05-06T06:30:53.077Z,6.5
2018-05-06T06:31:53.075Z,6.4
2018-05-06T06:32:55.882Z,6.47
2018-05-06T06:33:53.190Z,6.42
2018-05-06T06:34:53.078Z,6.39
2018-05-06T06:35:53.145Z,6.32
2018-05-06T06:36:53.024Z,6.41
2018-05-06T06:37:53.050Z,6.35
2018-05-06T06:38:53.205Z,6.41
2018-05-06T06:39:53.841Z,6.34
2018-05-06T06:40:53.033Z,6.35
2018-05-06T06:41:53.043Z,6.39
2018-05-06T06:42:53.574Z,6.54
2018-05-06T06:43:53.077Z,6.55
2018-05-06T06:44:53.055Z,6.56
2018-05-06T06:45:53.018Z,6.38
2018-05-06T06:46:53.024Z,6.44
2018-05-06T06:47:53.155Z,6.61
2018-05-06T06:48:53.515Z,6.54
2018-05-06T06:49:53.025Z,6.57
2018-05-06T06:50:53.033Z,6.58
2018-05-06T06:51:53.112Z,6.44
2018-05-06T06:52:53.048Z,6.56
2018-05-06T06:53:53.005Z,6.64
2018-05-06T06:54:53.078Z,6.49
2018-05-06T06:55:53.059Z,6.31
2018-05-06T06:56:53.045Z,6.38
2018-05-06T06:57:53.024Z,6.38
2018-05-06T06:58:53.089Z,6.3
2018-05-06T06:59:53.022Z,6.28
2018-05-06T07:00:53.036Z,6.32
2018-05-06T07:01:53.080Z,6.25
2018-05-06T07:02:53.042Z,6.22
2018-05-06T07:03:53.059Z,6.3
2018-05-06T07:04:53.067Z,6.32
2018-05-06T07:05:53.383Z,6.25
2018-05-06T07:06:53.040Z,6.27
2018-05-06T07:07:53.068Z,6.31
2018-05-06T07:08:53.056Z,6.3
2018-05-06T07:09:53.173Z,6.32
2018-05-06T07:10:53.027Z,6.26
2018-05-06T07:11:53.085Z,6.38
2018-05-06T07:12:53.050Z,6.42
2018-05-06T07:13:53.181Z,6.29
2018-05-06T07:14:53.161Z,6.18
2018-05-06T07:15:53.053Z,6.22
2018-05-06T07:16:53.066Z,6.19
2018-05-06T07:17:53.060Z,6.13
2018-05-06T07:18:53.034Z,6.17
2018-05-06T07:19:53.078Z,6.29
2018-05-06T07:20:53.075Z,6.27
2018-05-06T07:21:53.073Z,6.22
2018-05-06T07:22:53.236Z,6.32
2018-05-06T07:23:53.045Z,6.2
2018-05-06T07:24:53.077Z,6.24
2018-05-06T07:25:53.148Z,6.28
2018-05-06T07:26:53.161Z,6.33
2018-05-06T07:27:53.038Z,6.35
2018-05-06T07:28:53.068Z,6.33
2018-05-06T07:29:53.550Z,6.33
2018-05-06T07:30:53.113Z,6.31
2018-05-06T07:31:53.086Z,6.21
2018-05-06T07:32:53.078Z,6.24
2018-05-06T07:33:53.065Z,6.26
2018-05-06T07:34:53.029Z,6.29
2018-05-06T07:35:53.568Z,6.24
2018-05-06T07:36:53.080Z,6.26
2018-05-06T07:37:53.023Z,6.33
2018-05-06T07:38:53.045Z,6.33
2018-05-06T07:39:53.098Z,6.4
2018-05-06T07:40:53.114Z,6.32
2018-05-06T07:41:53.052Z,6.28
2018-05-06T07:42:53.099Z,6.42
2018-05-06T07:43:53.137Z,6.3
2018-05-06T07:44:53.107Z,6.29
2018-05-06T07:45:53.067Z,6.27
2018-05-06T07:46:53.064Z,6.27
2018-05-06T07:47:53.064Z,6.35
2018-05-06T07:48:53.088Z,6.37
2018-05-06T07:49:53.164Z,6.42
2018-05-06T07:50:53.110Z,6.38
2018-05-06T07:51:53.179Z,6.41
2018-05-06T07:52:53.046Z,6.49
2018-05-06T07:53:53.067Z,6.44
2018-05-06T07:54:53.036Z,6.53
2018-05-06T07:55:53.039Z,6.47
2018-05-06T07:56:53.070Z,6.49
2018-05-06T07:57:53.087Z,6.56
2018-05-06T07:58:53.538Z,6.48
2018-05-06T07:59:53.076Z,6.46
2018-05-06T08:00:53.087Z,6.44
2018-05-06T08:01:53.058Z,6.31
2018-05-06T08:02:53.041Z,6.32
2018-05-06T08:03:53.082Z,6.3
2018-05-06T08:04:53.397Z,6.37
2018-05-06T08:05:53.094Z,6.4
2018-05-06T08:06:53.079Z,6.46
2018-05-06T08:07:53.038Z,6.44
2018-05-06T08:08:53.049Z,6.53
2018-05-06T08:09:53.081Z,6.54
2018-05-06T08:10:53.842Z,6.63
2018-05-06T08:11:53.047Z,6.76
2018-05-06T08:12:53.045Z,6.55
2018-05-06T08:13:53.086Z,6.63
2018-05-06T08:14:53.080Z,6.56
2018-05-06T08:15:53.059Z,6.42
2018-05-06T08:16:53.060Z,6.54
2018-05-06T08:17:53.077Z,6.49
2018-05-06T08:18:53.090Z,6.43
2018-05-06T08:19:53.063Z,6.53
2018-05-06T08:20:53.139Z,6.71
2018-05-06T08:21:53.527Z,6.57
2018-05-06T08:22:53.102Z,6.67
2018-05-06T08:23:53.048Z,6.8
2018-05-06T08:24:53.081Z,6.73
2018-05-06T08:25:53.183Z,6.64
2018-05-06T08:26:53.052Z,6.68
2018-05-06T08:27:53.109Z,6.68
2018-05-06T08:28:53.150Z,6.68
2018-05-06T08:29:53.171Z,6.71
2018-05-06T08:30:53.079Z,6.72
2018-05-06T08:31:53.064Z,6.79
2018-05-06T08:32:53.080Z,6.82
2018-05-06T08:33:53.101Z,6.77
2018-05-06T08:34:53.084Z,6.79
2018-05-06T08:35:53.079Z,6.87
2018-05-06T08:36:53.118Z,6.95
2018-05-06T08:37:53.082Z,6.94
2018-05-06T08:38:53.073Z,6.86
2018-05-06T08:39:53.108Z,6.71
2018-05-06T08:40:53.101Z,6.93
2018-05-06T08:41:55.464Z,6.9
2018-05-06T08:42:53.088Z,6.86
2018-05-06T08:43:53.175Z,7.08
2018-05-06T08:44:55.017Z,7.08
2018-05-06T08:45:53.545Z,7.08
2018-05-06T08:46:53.081Z,7.11
2018-05-06T08:47:54.675Z,6.88
2018-05-06T08:48:55.400Z,6.94
2018-05-06T08:49:53.094Z,6.98
2018-05-06T08:50:53.273Z,7.04
2018-05-06T08:51:53.108Z,6.88
2018-05-06T08:52:54.643Z,6.93
2018-05-06T08:53:53.168Z,6.99
2018-05-06T08:54:57.876Z,6.84
2018-05-06T08:55:53.106Z,6.89
2018-05-06T08:56:53.186Z,7.14
2018-05-06T08:57:53.141Z,7.22
2018-05-06T08:58:53.099Z,7.19
2018-05-06T08:59:53.307Z,7.19
2018-05-06T09:00:53.215Z,7.17
2018-05-06T09:01:53.235Z,7.24
2018-05-06T09:02:53.113Z,7.21
2018-05-06T09:03:53.187Z,7.19
2018-05-06T09:04:53.996Z,7.03
2018-05-06T09:05:53.131Z,7.22
2018-05-06T09:06:54.743Z,7.21
2018-05-06T09:07:53.645Z,7.26
2018-05-06T09:08:53.158Z,7.29
2018-05-06T09:09:53.120Z,7.34
2018-05-06T09:10:53.102Z,7.1
2018-05-06T09:11:53.078Z,7.08
2018-05-06T09:12:53.098Z,7.24
2018-05-06T09:13:53.114Z,7.19
2018-05-06T09:14:53.145Z,7.42
2018-05-06T09:15:53.097Z,7.43
2018-05-06T09:16:53.792Z,7.33
2018-05-06T09:17:53.434Z,7.35
2018-05-06T09:18:53.289Z,7.2
2018-05-06T09:19:53.445Z,7.41
2018-05-06T09:20:53.180Z,7.47
2018-05-06T09:21:53.144Z,7.4
2018-05-06T09:22:53.128Z,7.68
2018-05-06T09:23:53.209Z,7.41
2018-05-06T09:24:53.133Z,7.51
2018-05-06T09:25:53.130Z,7.59
2018-05-06T09:26:54.571Z,7.55
2018-05-06T09:27:57.037Z,7.38
2018-05-06T09:28:53.084Z,7.34
2018-05-06T09:29:53.129Z,7.29
2018-05-06T09:30:53.147Z,7.23
2018-05-06T09:31:54.174Z,7.4
2018-05-06T09:32:53.102Z,7.57
2018-05-06T09:33:53.204Z,7.37
2018-05-06T09:34:53.194Z,7.36
2018-05-06T09:35:53.141Z,7.35
2018-05-06T09:36:53.114Z,7.45
2018-05-06T09:37:53.125Z,7.27
2018-05-06T09:38:53.115Z,7.31
2018-05-06T09:39:53.121Z,7.38
2018-05-06T09:40:53.136Z,7.42
2018-05-06T09:41:53.145Z,7.39
2018-05-06T09:42:53.124Z,7.5
2018-05-06T09:43:53.121Z,7.54
2018-05-06T09:44:53.132Z,7.84
2018-05-06T09:45:53.116Z,7.65
2018-05-06T09:46:53.224Z,7.44
2018-05-06T09:47:53.553Z,7.54
2018-05-06T09:48:53.124Z,7.39
2018-05-06T09:49:53.905Z,7.4
2018-05-06T09:50:53.103Z,7.42
2018-05-06T09:51:53.152Z,7.46
2018-05-06T09:52:53.129Z,7.45
2018-05-06T09:53:53.665Z,7.73
2018-05-06T09:54:53.323Z,7.71
2018-05-06T09:55:53.173Z,7.64
2018-05-06T09:56:53.107Z,7.6
2018-05-06T09:57:53.219Z,7.69
2018-05-06T09:58:53.169Z,7.76
2018-05-06T09:59:53.261Z,7.77
2018-05-06T10:00:53.105Z,7.77
2018-05-06T10:01:53.200Z,7.93
2018-05-06T10:02:53.134Z,8.07
2018-05-06T10:03:53.096Z,7.99
2018-05-06T10:04:53.169Z,7.92
2018-05-06T10:06:53.414Z,7.74
2018-05-06T10:07:53.232Z,7.65
2018-05-06T10:08:53.155Z,7.55
2018-05-06T10:09:53.176Z,7.54
2018-05-06T10:10:53.272Z,7.52
2018-05-06T10:11:53.253Z,7.38
2018-05-06T10:12:53.241Z,7.62
2018-05-06T10:13:53.146Z,7.44
2018-05-06T10:14:53.299Z,7.55
2018-05-06T10:15:53.824Z,7.7
2018-05-06T10:16:53.340Z,7.75
2018-05-06T10:17:53.210Z,7.8
2018-05-06T10:18:53.218Z,7.8
2018-05-06T10:19:53.290Z,7.7
2018-05-06T10:20:53.165Z,7.66
2018-05-06T10:21:53.311Z,7.63
2018-05-06T10:22:53.160Z,7.58
2018-05-06T10:23:53.209Z,7.53
2018-05-06T10:24:53.389Z,7.58
2018-05-06T10:25:53.138Z,7.66
2018-05-06T10:26:53.155Z,7.66
2018-05-06T10:27:53.292Z,7.73
2018-05-06T10:28:53.306Z,7.61
2018-05-06T10:29:56.168Z,7.73
2018-05-06T10:30:53.189Z,7.68
2018-05-06T10:31:53.338Z,7.62
2018-05-06T10:32:53.420Z,7.37
2018-05-06T10:33:53.157Z,7.4
2018-05-06T10:34:53.366Z,7.53
2018-05-06T10:35:53.198Z,7.43
2018-05-06T10:36:53.318Z,7.59
2018-05-06T10:37:53.154Z,7.43
2018-05-06T10:38:53.350Z,7.4
2018-05-06T10:39:53.391Z,7.42
2018-05-06T10:40:53.170Z,7.41
2018-05-06T10:41:53.408Z,7.44
2018-05-06T10:42:53.178Z,7.51
2018-05-06T10:43:53.418Z,7.34
2018-05-06T10:44:53.492Z,7.46
2018-05-06T10:45:53.486Z,7.41
2018-05-06T10:46:53.505Z,7.19
2018-05-06T10:47:53.323Z,7.39
2018-05-06T10:48:53.484Z,7.39
2018-05-06T10:49:53.429Z,7.51
2018-05-06T10:50:54.133Z,7.43
2018-05-06T10:51:53.244Z,7.51
2018-05-06T10:52:53.170Z,7.44
2018-05-06T10:53:53.166Z,7.36
2018-05-06T10:54:53.689Z,7.33
2018-05-06T10:55:53.388Z,7.34
2018-05-06T10:56:53.392Z,7.33
2018-05-06T10:57:53.898Z,7.29
2018-05-06T10:58:53.183Z,7.32
2018-05-06T10:59:53.163Z,7.3
2018-05-06T11:00:53.623Z,7.29
2018-05-06T11:01:53.209Z,7.49
2018-05-06T11:02:53.147Z,7.52
2018-05-06T11:03:53.411Z,7.35
2018-05-06T11:04:53.200Z,7.35
2018-05-06T11:05:53.169Z,7.25
2018-05-06T11:06:53.154Z,7.31
2018-05-06T11:07:53.170Z,7.4
2018-05-06T11:08:53.199Z,7.3
2018-05-06T11:09:53.173Z,7.34
2018-05-06T11:10:53.193Z,7.22
2018-05-06T11:11:53.199Z,7.18
2018-05-06T11:12:53.328Z,7.19
2018-05-06T11:13:53.191Z,7.42
2018-05-06T11:14:53.316Z,7.25
2018-05-06T11:15:53.171Z,7.25
2018-05-06T11:16:53.177Z,7.34
2018-05-06T11:17:54.191Z,7.47
2018-05-06T11:18:53.519Z,7.53
2018-05-06T11:19:53.272Z,7.43
2018-05-06T11:20:53.342Z,7.36
2018-05-06T11:21:53.194Z,7.48
2018-05-06T11:22:53.430Z,7.31
2018-05-06T11:23:53.380Z,7.32
2018-05-06T11:24:53.205Z,7.48
2018-05-06T11:25:53.231Z,7.25
2018-05-06T11:26:53.197Z,7.38
2018-05-06T11:27:53.180Z,7.36
2018-05-06T11:28:53.222Z,7.21
2018-05-06T11:29:53.171Z,7.28
2018-05-06T11:30:53.187Z,7.17
2018-05-06T11:31:53.310Z,7.12
2018-05-06T11:32:53.233Z,7.14
2018-05-06T11:33:53.172Z,7.28
2018-05-06T11:34:53.275Z,7.25
2018-05-06T11:35:53.188Z,7.14
2018-05-06T11:36:53.195Z,7.14
2018-05-06T11:37:53.191Z,7.26
2018-05-06T11:38:53.187Z,7.07
2018-05-06T11:39:53.213Z,7.16
2018-05-06T11:40:53.518Z,7.03
2018-05-06T11:41:53.238Z,7.1
2018-05-06T11:42:53.235Z,7.19
2018-05-06T11:43:53.205Z,7.21
2018-05-06T11:44:53.217Z,7.31
2018-05-06T11:45:53.227Z,7.41
2018-05-06T11:46:53.261Z,7.43
2018-05-06T11:47:53.201Z,7.27
2018-05-06T11:48:53.198Z,7.35
2018-05-06T11:49:53.210Z,7.21
2018-05-06T11:50:53.219Z,7.18
2018-05-06T11:51:53.233Z,7.22
2018-05-06T11:52:53.244Z,7.35
2018-05-06T11:53:53.262Z,7.2
2018-05-06T11:54:53.331Z,7.26
2018-05-06T11:55:53.497Z,7.28
2018-05-06T11:56:53.212Z,7.32
2018-05-06T11:57:53.217Z,7.19
2018-05-06T11:58:53.187Z,7.12
2018-05-06T11:59:53.247Z,7.06
2018-05-06T12:00:53.212Z,7.02
2018-05-06T12:01:53.218Z,6.95
2018-05-06T12:02:53.252Z,7.22
2018-05-06T12:03:53.225Z,7.2
2018-05-06T12:04:53.232Z,7.09
2018-05-06T12:05:53.323Z,7.08
2018-05-06T12:06:53.220Z,7.02
2018-05-06T12:07:53.233Z,7.02
2018-05-06T12:08:53.236Z,7
2018-05-06T12:09:53.473Z,7.1
2018-05-06T12:10:53.239Z,6.97
2018-05-06T12:11:53.274Z,6.8
2018-05-06T12:12:53.219Z,6.85
2018-05-06T12:13:53.381Z,7.03
2018-05-06T12:14:53.268Z,6.84
2018-05-06T12:15:53.739Z,6.75
2018-05-06T12:16:53.218Z,6.91
2018-05-06T12:17:53.251Z,6.97
2018-05-06T12:18:53.227Z,7.06
2018-05-06T12:19:53.236Z,6.92
2018-05-06T12:20:53.253Z,7.09
2018-05-06T12:21:53.636Z,6.86
2018-05-06T12:22:53.375Z,6.86
2018-05-06T12:23:53.617Z,6.88
2018-05-06T12:24:53.240Z,6.9
2018-05-06T12:25:53.210Z,7.01
2018-05-06T12:26:53.242Z,6.97
2018-05-06T12:27:53.274Z,7.02
2018-05-06T12:28:53.217Z,6.96
2018-05-06T12:29:53.224Z,6.83
2018-05-06T12:30:53.255Z,6.93
2018-05-06T12:31:53.305Z,7.07
2018-05-06T12:32:53.224Z,7.02
2018-05-06T12:33:53.228Z,7.12
2018-05-06T12:34:53.259Z,7.08
2018-05-06T12:35:53.224Z,6.92
2018-05-06T12:36:53.254Z,6.98
2018-05-06T12:37:53.235Z,7.01
2018-05-06T12:38:53.252Z,7.15
2018-05-06T12:39:53.229Z,7.12
2018-05-06T12:40:53.206Z,6.98
2018-05-06T12:41:53.253Z,6.92
2018-05-06T12:42:53.231Z,7.15
2018-05-06T12:43:53.225Z,7
2018-05-06T12:44:53.313Z,7.13
2018-05-06T12:45:53.254Z,7.06
2018-05-06T12:46:53.441Z,6.88
2018-05-06T12:47:53.428Z,7.01
2018-05-06T12:48:53.260Z,6.88
2018-05-06T12:49:53.259Z,6.97
2018-05-06T12:50:53.447Z,7
2018-05-06T12:51:53.457Z,7.03
2018-05-06T12:52:53.445Z,7.21
2018-05-06T12:53:53.521Z,7
2018-05-06T12:54:53.679Z,7.28
2018-05-06T12:55:53.308Z,6.97
2018-05-06T12:56:53.430Z,6.98
2018-05-06T12:57:53.500Z,7.02
2018-05-06T12:58:54.339Z,7.21
2018-05-06T12:59:53.315Z,7.09
2018-05-06T13:00:53.273Z,7.05
2018-05-06T13:01:53.517Z,7.03
2018-05-06T13:02:53.430Z,6.97
2018-05-06T13:03:53.267Z,7.22
2018-05-06T13:04:53.526Z,7.01
2018-05-06T13:05:53.242Z,6.95
2018-05-06T13:06:53.292Z,6.95
2018-05-06T13:07:53.494Z,6.89
2018-05-06T13:08:53.350Z,7.14
2018-05-06T13:09:53.398Z,7.12
2018-05-06T13:10:53.412Z,6.91
2018-05-06T13:11:53.255Z,6.86
2018-05-06T13:12:53.395Z,7.07
2018-05-06T13:13:53.434Z,6.86
2018-05-06T13:14:53.418Z,6.97
2018-05-06T13:15:53.417Z,7.01
2018-05-06T13:16:53.429Z,6.88
2018-05-06T13:17:54.458Z,7.06
2018-05-06T13:18:53.284Z,6.92
2018-05-06T13:19:53.459Z,6.76
2018-05-06T13:20:53.455Z,6.84
2018-05-06T13:21:53.353Z,6.73
2018-05-06T13:22:53.357Z,6.86